createdAt,value
2017-11-17T00:01:52.830Z,22.47
2017-11-17T00:04:19.221Z,20.13
2017-11-17T00:06:45.569Z,20.40
2017-11-17T00:09:12.001Z,20.13
2017-11-17T00:11:38.366Z,21.10
2017-11-17T00:14:04.719Z,20.17
2017-11-17T00:16:31.129Z,24.53
2017-11-17T00:18:57.477Z,23.97
2017-11-17T00:21:23.823Z,21.87
2017-11-17T00:23:50.320Z,26.10
2017-11-17T00:26:16.753Z,30.37
2017-11-17T00:28:43.109Z,25.23
2017-11-17T00:31:09.493Z,24.60
2017-11-17T00:33:35.885Z,23.70
2017-11-17T00:36:02.266Z,21.93
2017-11-17T00:38:28.690Z,23.03
2017-11-17T00:40:55.046Z,21.80
2017-11-17T00:43:21.428Z,23.87
2017-11-17T00:45:47.853Z,19.03
2017-11-17T00:48:14.209Z,23.77
2017-11-17T00:50:40.557Z,20.83
2017-11-17T00:53:06.949Z,20.80
2017-11-17T00:55:33.327Z,20.57
2017-11-17T00:57:59.680Z,26.13
2017-11-17T01:00:26.053Z,22.67
2017-11-17T01:02:52.404Z,25.07
2017-11-17T01:05:18.785Z,24.83
2017-11-17T01:07:45.167Z,23.13
2017-11-17T01:10:11.510Z,26.80
2017-11-17T01:12:37.881Z,24.93
2017-11-17T01:15:04.270Z,27.23
2017-11-17T01:17:30.645Z,25.93
2017-11-17T01:19:57.006Z,23.57
2017-11-17T01:22:23.490Z,24.60
2017-11-17T01:24:49.862Z,26.53
2017-11-17T01:27:16.223Z,24.53
2017-11-17T01:29:42.656Z,24.93
2017-11-17T01:32:09.026Z,27.33
2017-11-17T01:34:35.378Z,27.33
2017-11-17T01:37:01.790Z,27.70
2017-11-17T01:39:28.161Z,31.27
2017-11-17T01:41:54.506Z,24.67
2017-11-17T01:44:20.954Z,29.40
2017-11-17T01:46:47.412Z,31.30
2017-11-17T01:49:13.802Z,29.67
2017-11-17T01:51:40.193Z,28.87
2017-11-17T01:54:06.618Z,29.03
2017-11-17T01:56:33.041Z,27.87
2017-11-17T01:58:59.492Z,29.83
2017-11-17T02:01:25.885Z,33.90
2017-11-17T02:03:52.445Z,46.23
2017-11-17T02:06:18.884Z,45.30
2017-11-17T02:08:45.946Z,44.97
2017-11-17T02:11:12.358Z,50.47
2017-11-17T02:13:38.774Z,45.47
2017-11-17T02:16:05.157Z,42.07
2017-11-17T02:18:31.561Z,44.93
2017-11-17T02:20:58.065Z,40.43
2017-11-17T02:23:24.541Z,36.97
2017-11-17T02:25:50.962Z,31.93
2017-11-17T02:28:17.502Z,33.43
2017-11-17T02:30:43.933Z,22.33
2017-11-17T02:33:10.328Z,25.47
2017-11-17T02:35:36.833Z,26.03
2017-11-17T02:38:03.330Z,22.47
2017-11-17T02:40:29.769Z,27.47
2017-11-17T02:42:56.245Z,23.13
2017-11-17T02:45:22.733Z,21.23
2017-11-17T02:47:49.183Z,20.83
2017-11-17T02:50:15.647Z,21.33
2017-11-17T02:52:42.104Z,21.07
2017-11-17T02:55:08.578Z,19.30
2017-11-17T02:57:35.025Z,22.10
2017-11-17T03:00:01.470Z,19.57
2017-11-17T03:02:27.893Z,20.37
2017-11-17T03:04:54.335Z,19.77
2017-11-17T03:07:20.700Z,20.63
2017-11-17T03:09:47.122Z,19.43
2017-11-17T03:12:13.637Z,19.83
2017-11-17T03:14:40.113Z,19.60
2017-11-17T03:17:06.542Z,17.97
2017-11-17T03:19:32.981Z,18.07
2017-11-17T03:21:59.389Z,18.47
2017-11-17T03:24:25.794Z,16.80
2017-11-17T03:26:52.310Z,17.30
2017-11-17T03:29:18.788Z,17.50
2017-11-17T03:31:45.193Z,15.13
2017-11-17T03:34:11.634Z,16.00
2017-11-17T03:36:38.017Z,16.30
2017-11-17T03:39:04.417Z,17.63
2017-11-17T03:41:30.873Z,16.40
2017-11-17T03:43:57.335Z,16.07
2017-11-17T03:46:23.713Z,16.70
2017-11-17T03:48:50.137Z,17.83
2017-11-17T03:51:16.493Z,20.07
2017-11-17T03:53:42.862Z,18.97
2017-11-17T03:56:09.274Z,16.73
2017-11-17T03:58:35.645Z,18.93
2017-11-17T04:01:02.162Z,19.10
2017-11-17T04:03:28.704Z,19.13
2017-11-17T04:05:55.113Z,17.47
2017-11-17T04:08:21.517Z,18.93
2017-11-17T04:10:47.947Z,17.53
2017-11-17T04:13:14.392Z,19.97
2017-11-17T04:15:40.784Z,19.07
2017-11-17T04:18:07.198Z,15.33
2017-11-17T04:20:33.613Z,16.80
2017-11-17T04:23:00.014Z,18.63
2017-11-17T04:25:26.597Z,26.57
2017-11-17T04:27:52.966Z,19.00
2017-11-17T04:30:19.394Z,15.97
2017-11-17T04:32:45.842Z,18.03
2017-11-17T04:35:12.257Z,19.03
2017-11-17T04:37:38.637Z,18.10
2017-11-17T04:40:05.062Z,17.33
2017-11-17T04:42:31.452Z,16.20
2017-11-17T04:44:57.826Z,17.33
2017-11-17T04:47:24.258Z,19.97
2017-11-17T04:49:50.662Z,20.67
2017-11-17T04:52:17.036Z,19.30
2017-11-17T04:54:43.496Z,19.83
2017-11-17T04:57:09.881Z,20.43
2017-11-17T04:59:36.252Z,21.23
2017-11-17T05:02:02.661Z,20.37
2017-11-17T05:04:29.041Z,21.97
2017-11-17T05:06:55.465Z,22.23
2017-11-17T05:09:21.918Z,25.93
2017-11-17T05:11:48.327Z,30.83
2017-11-17T05:14:14.709Z,30.37
2017-11-17T05:16:41.121Z,23.27
2017-11-17T05:19:07.537Z,24.73
2017-11-17T05:21:33.876Z,19.30
2017-11-17T05:24:00.277Z,20.70
2017-11-17T05:26:26.614Z,22.47
2017-11-17T05:28:52.945Z,26.27
2017-11-17T05:31:19.353Z,26.90
2017-11-17T05:33:45.746Z,24.60
2017-11-17T05:36:12.086Z,22.40
2017-11-17T05:38:38.486Z,21.30
2017-11-17T05:41:04.830Z,20.17
2017-11-17T05:43:31.336Z,25.13
2017-11-17T05:45:57.770Z,30.63
2017-11-17T05:48:24.116Z,23.53
2017-11-17T05:50:50.458Z,20.40
2017-11-17T05:53:16.845Z,25.27
2017-11-17T05:55:43.194Z,24.33
2017-11-17T05:58:09.541Z,26.80
2017-11-17T06:00:35.927Z,28.60
2017-11-17T06:03:02.315Z,24.57
2017-11-17T06:05:28.681Z,25.33
2017-11-17T06:07:55.107Z,26.80
2017-11-17T06:10:21.473Z,21.60
2017-11-17T06:12:47.938Z,23.63
2017-11-17T06:15:14.362Z,20.70
2017-11-17T06:17:40.726Z,25.53
2017-11-17T06:20:07.376Z,23.20
2017-11-17T06:22:33.859Z,23.90
2017-11-17T06:25:00.249Z,26.03
2017-11-17T06:27:26.622Z,29.30
2017-11-17T06:29:53.158Z,27.43
2017-11-17T06:32:19.516Z,36.07
2017-11-17T06:34:45.908Z,34.73
2017-11-17T06:37:12.293Z,29.10
2017-11-17T06:39:38.642Z,27.43
2017-11-17T06:42:04.993Z,26.20
2017-11-17T06:44:32.140Z,27.60
2017-11-17T06:46:58.714Z,25.73
2017-11-17T06:49:25.057Z,24.83
2017-11-17T06:51:51.777Z,28.33
2017-11-17T06:54:18.209Z,27.83
2017-11-17T06:56:44.589Z,43.07
2017-11-17T06:59:11.053Z,30.43
2017-11-17T07:01:37.464Z,27.73
2017-11-17T07:04:03.834Z,29.03
2017-11-17T07:06:30.262Z,30.07
2017-11-17T07:08:56.637Z,32.23
2017-11-17T07:11:23.010Z,28.63
2017-11-17T07:13:49.471Z,33.73
2017-11-17T07:16:15.965Z,38.60
2017-11-17T07:18:42.335Z,32.10
2017-11-17T07:21:08.836Z,53.17
2017-11-17T07:23:35.221Z,45.43
2017-11-17T07:26:01.675Z,42.00
2017-11-17T07:28:28.106Z,50.73
2017-11-17T07:30:54.469Z,46.07
2017-11-17T07:33:20.990Z,55.50
2017-11-17T07:35:47.449Z,42.37
2017-11-17T07:38:13.809Z,46.43
2017-11-17T07:40:40.149Z,40.80
2017-11-17T07:43:06.546Z,37.63
2017-11-17T07:45:32.945Z,37.90
2017-11-17T07:47:59.313Z,40.90
2017-11-17T07:50:25.738Z,49.60
2017-11-17T07:52:52.210Z,45.03
2017-11-17T07:55:19.385Z,54.53
2017-11-17T07:57:45.961Z,46.37
2017-11-17T08:00:12.333Z,43.70
2017-11-17T08:02:38.673Z,45.67
2017-11-17T08:05:05.098Z,46.13
2017-11-17T08:07:31.442Z,54.20
2017-11-17T08:09:58.298Z,50.27
2017-11-17T08:12:24.777Z,51.47
2017-11-17T08:14:51.149Z,48.70
2017-11-17T08:17:23.653Z,67.03
2017-11-17T08:19:50.215Z,71.67
2017-11-17T08:22:16.594Z,64.53
2017-11-17T08:24:42.977Z,62.77
2017-11-17T08:27:09.593Z,55.93
2017-11-17T08:29:36.444Z,55.43
2017-11-17T08:32:02.948Z,73.40
2017-11-17T08:34:29.421Z,79.40
2017-11-17T08:36:55.798Z,84.60
2017-11-17T08:39:22.257Z,85.70
2017-11-17T08:42:04.900Z,51.57
2017-11-17T09:19:25.429Z,76.57
2017-11-17T09:22:06.957Z,91.70
2017-11-17T09:24:52.739Z,91.30
2017-11-17T09:44:01.609Z,34.97
2017-11-17T10:08:42.581Z,34.50
2017-11-17T10:35:28.183Z,43.40
2017-11-17T10:37:54.618Z,43.00
2017-11-17T10:40:21.041Z,46.80
2017-11-17T10:42:47.490Z,44.40
2017-11-17T10:45:13.906Z,52.57
2017-11-17T10:47:40.618Z,59.20
2017-11-17T10:50:07.127Z,50.20
2017-11-17T10:52:33.573Z,97.53
2017-11-17T10:55:00.026Z,107.33
2017-11-17T10:57:26.619Z,137.43
2017-11-17T10:59:53.242Z,135.43
2017-11-17T11:02:19.721Z,158.53
2017-11-17T11:04:46.227Z,158.23
2017-11-17T11:07:12.749Z,144.50
2017-11-17T11:09:39.431Z,168.70
2017-11-17T11:12:05.967Z,139.23
2017-11-17T11:14:32.382Z,77.57
2017-11-17T11:16:59.090Z,107.17
2017-11-17T11:19:25.778Z,107.10
2017-11-17T11:21:52.194Z,109.23
2017-11-17T11:24:18.626Z,70.30
2017-11-17T11:26:45.057Z,75.27
2017-11-17T11:29:11.642Z,72.53
2017-11-17T11:31:38.041Z,66.13
2017-11-17T11:34:04.561Z,68.57
2017-11-17T11:36:31.529Z,87.70
2017-11-17T11:38:57.933Z,90.73
2017-11-17T11:41:24.317Z,87.63
2017-11-17T11:43:50.757Z,91.03
2017-11-17T11:46:17.245Z,92.80
2017-11-17T11:48:43.695Z,118.73
2017-11-17T11:51:10.065Z,118.23
2017-11-17T11:53:36.466Z,128.83
2017-11-17T11:56:02.983Z,167.73
2017-11-17T11:58:29.406Z,142.93
2017-11-17T12:00:55.860Z,168.10
2017-11-17T12:03:22.318Z,186.43
2017-11-17T12:05:48.709Z,215.40
2017-11-17T12:08:15.165Z,200.03
2017-11-17T12:10:41.565Z,210.43
2017-11-17T12:13:07.947Z,199.27
2017-11-17T12:15:34.306Z,209.97
2017-11-17T12:18:00.790Z,199.13
2017-11-17T12:20:27.178Z,170.97
2017-11-17T12:22:53.590Z,181.03
2017-11-17T12:25:20.627Z,141.80
2017-11-17T12:27:47.446Z,143.77
2017-11-17T12:30:13.855Z,103.63
2017-11-17T12:32:40.271Z,135.30
2017-11-17T12:35:06.746Z,102.00
2017-11-17T12:37:33.154Z,91.77
2017-11-17T12:39:59.562Z,86.07
2017-11-17T12:42:25.965Z,51.20
2017-11-17T12:44:52.330Z,36.70
2017-11-17T12:47:18.745Z,35.30
2017-11-17T12:49:45.097Z,30.13
2017-11-17T12:52:11.469Z,32.67
2017-11-17T12:54:37.889Z,34.60
2017-11-17T12:57:04.270Z,44.63
2017-11-17T12:59:32.510Z,26.93
2017-11-17T13:01:58.916Z,25.23
2017-11-17T13:04:25.325Z,27.70
2017-11-17T14:57:00.795Z,63.17
2017-11-17T14:59:27.402Z,67.90
2017-11-17T15:01:53.941Z,72.17
2017-11-17T15:04:20.442Z,126.83
2017-11-17T15:06:46.835Z,135.07
2017-11-17T15:09:13.547Z,126.17
2017-11-17T15:11:40.185Z,112.23
2017-11-17T15:14:06.590Z,105.50
2017-11-17T15:16:33.153Z,107.17
2017-11-17T15:18:59.665Z,99.83
2017-11-17T15:21:26.110Z,106.53
2017-11-17T15:23:52.569Z,112.67
2017-11-17T15:26:19.192Z,132.17
2017-11-17T15:28:45.635Z,129.03
2017-11-17T15:31:12.169Z,160.17
2017-11-17T15:33:38.739Z,182.87
2017-11-17T15:36:05.986Z,219.10
2017-11-17T15:38:32.587Z,244.20
2017-11-17T15:40:59.377Z,231.00
2017-11-17T15:43:25.898Z,244.03
2017-11-17T15:45:52.502Z,246.07
2017-11-17T15:48:21.103Z,221.60
2017-11-17T15:50:47.901Z,246.57
2017-11-17T15:53:14.389Z,233.63
2017-11-17T15:55:40.942Z,239.37
2017-11-17T15:58:07.338Z,179.17
2017-11-17T16:00:33.873Z,236.60
2017-11-17T16:03:00.338Z,206.50
2017-11-17T16:05:26.888Z,199.37
2017-11-17T16:07:53.374Z,177.00
2017-11-17T16:10:19.838Z,180.00
2017-11-17T16:12:46.294Z,185.07
2017-11-17T16:15:12.720Z,163.23
2017-11-17T16:17:39.250Z,183.80
2017-11-17T16:20:05.818Z,170.27
2017-11-17T16:22:32.306Z,160.13
2017-11-17T16:24:58.775Z,164.70
2017-11-17T16:27:25.256Z,165.37
2017-11-17T16:29:51.772Z,152.47
2017-11-17T16:32:18.294Z,152.43
2017-11-17T16:34:44.775Z,151.47
2017-11-17T16:37:11.217Z,99.60
2017-11-17T16:39:37.654Z,153.50
2017-11-17T16:42:04.286Z,136.40
2017-11-17T16:44:30.766Z,136.70
2017-11-17T16:46:57.258Z,122.13
2017-11-17T16:49:23.763Z,126.57
2017-11-17T16:51:50.241Z,117.00
2017-11-17T16:54:16.782Z,97.40
2017-11-17T16:56:43.189Z,91.53
2017-11-17T16:59:09.629Z,73.03
2017-11-17T17:01:36.106Z,79.23
2017-11-17T17:04:02.570Z,75.37
2017-11-17T17:06:29.006Z,65.73
2017-11-17T17:08:55.819Z,71.43
2017-11-17T17:11:22.334Z,47.67
2017-11-17T17:13:48.740Z,53.17
2017-11-17T17:16:15.187Z,49.00
2017-11-17T17:18:41.618Z,44.87
2017-11-17T17:21:09.144Z,50.57
2017-11-17T17:23:36.662Z,43.40
2017-11-17T17:26:03.227Z,52.90
2017-11-17T17:28:29.661Z,49.57
2017-11-17T17:30:56.200Z,60.10
2017-11-17T17:33:22.608Z,54.50
2017-11-17T17:35:48.982Z,43.30
2017-11-17T17:38:15.497Z,42.60
2017-11-17T17:40:41.862Z,39.33
2017-11-17T17:43:08.283Z,30.70
2017-11-17T17:45:34.742Z,46.13
2017-11-17T17:48:01.168Z,30.47
2017-11-17T17:50:27.755Z,41.13
2017-11-17T17:52:54.422Z,36.70
2017-11-17T17:55:20.954Z,37.03
2017-11-17T17:57:47.682Z,34.47
2017-11-17T18:00:14.701Z,30.13
2017-11-17T18:02:41.218Z,28.87
2017-11-17T18:05:07.661Z,36.83
2017-11-17T18:07:34.165Z,30.70
2017-11-17T18:10:00.617Z,26.10
2017-11-17T18:12:27.081Z,33.73
2017-11-17T18:14:53.641Z,26.97
2017-11-17T18:17:20.068Z,26.40
2017-11-17T18:19:46.666Z,23.20
2017-11-17T18:22:13.170Z,29.53
2017-11-17T18:24:39.621Z,29.50
2017-11-17T18:27:06.058Z,29.67
2017-11-17T18:29:32.549Z,22.53
2017-11-17T18:31:59.087Z,19.60
2017-11-17T18:34:25.793Z,30.53
2017-11-17T18:36:52.348Z,36.23
2017-11-17T18:39:20.942Z,23.67
2017-11-17T18:41:47.423Z,25.77
2017-11-17T18:44:13.857Z,24.83
2017-11-17T18:46:41.371Z,23.23
2017-11-17T18:49:07.743Z,22.83
2017-11-17T18:51:34.206Z,18.87
2017-11-17T18:54:00.718Z,27.30
2017-11-17T18:56:27.214Z,38.60
2017-11-17T18:58:53.700Z,21.00
2017-11-17T19:01:20.088Z,23.33
2017-11-17T19:03:46.483Z,22.23
2017-11-17T19:06:12.972Z,20.27
2017-11-17T19:08:39.454Z,26.83
2017-11-17T19:11:05.871Z,19.47
2017-11-17T19:13:32.319Z,19.63
2017-11-17T19:15:58.698Z,20.67
2017-11-17T19:18:25.202Z,31.17
2017-11-17T19:20:51.652Z,32.63
2017-11-17T19:23:18.171Z,21.77
2017-11-17T19:25:45.403Z,21.63
2017-11-17T19:28:11.830Z,25.73
2017-11-17T19:30:38.392Z,19.20
2017-11-17T19:33:04.798Z,33.73
2017-11-17T19:35:31.210Z,51.13
2017-11-17T19:37:57.694Z,50.20
2017-11-17T19:40:24.099Z,36.80
2017-11-17T19:42:50.546Z,32.93
2017-11-17T19:45:17.873Z,29.80
2017-11-17T19:47:44.294Z,39.47
2017-11-17T19:50:10.745Z,94.50
2017-11-17T19:52:37.420Z,60.00
2017-11-17T19:55:05.168Z,81.13
2017-11-17T19:57:31.589Z,52.10
2017-11-17T19:59:58.813Z,31.73
2017-11-17T20:02:26.093Z,39.37
2017-11-17T20:04:52.606Z,39.00
2017-11-17T20:07:19.016Z,36.80
2017-11-17T20:09:45.378Z,37.13
2017-11-17T20:12:11.846Z,34.03
2017-11-17T20:14:38.233Z,39.80
2017-11-17T20:17:04.646Z,45.53
2017-11-17T20:19:31.154Z,45.43
2017-11-17T20:21:59.471Z,47.50
2017-11-17T20:24:25.913Z,66.53
2017-11-17T20:26:52.324Z,66.50
2017-11-17T20:29:18.723Z,34.53
2017-11-17T20:31:45.901Z,25.77
2017-11-17T20:34:12.330Z,21.00
2017-11-17T20:36:38.695Z,24.93
2017-11-17T20:39:05.075Z,19.90
2017-11-17T20:41:33.143Z,24.63
2017-11-17T20:43:59.538Z,23.97
2017-11-17T20:46:25.918Z,26.93
2017-11-17T20:48:52.318Z,29.37
2017-11-17T20:51:18.681Z,36.40
2017-11-17T20:53:45.084Z,38.43
2017-11-17T20:56:11.545Z,36.47
2017-11-17T20:58:38.053Z,35.50
2017-11-17T21:01:04.463Z,33.67
2017-11-17T21:03:30.962Z,26.97
2017-11-17T21:05:57.364Z,31.97
2017-11-17T21:08:23.774Z,30.00
2017-11-17T21:10:50.221Z,37.33
2017-11-17T21:13:16.625Z,28.00
2017-11-17T21:15:43.017Z,29.20
2017-11-17T21:18:09.479Z,27.90
2017-11-17T21:20:36.802Z,34.00
2017-11-17T21:23:03.178Z,29.67
2017-11-17T21:25:29.613Z,28.03
2017-11-17T21:27:56.001Z,30.03
2017-11-17T21:30:22.542Z,28.90
2017-11-17T21:32:48.994Z,30.67
2017-11-17T21:35:15.533Z,30.10
2017-11-17T21:37:41.908Z,30.90
2017-11-17T21:40:08.342Z,33.17
2017-11-17T21:42:34.731Z,36.80
2017-11-17T21:45:01.101Z,36.50
2017-11-17T21:47:27.534Z,32.53
2017-11-17T21:49:53.983Z,25.27
2017-11-17T21:52:20.429Z,30.73
2017-11-17T21:54:46.818Z,31.70
2017-11-17T21:57:13.300Z,37.53
2017-11-17T21:59:39.769Z,30.73
2017-11-17T22:02:06.295Z,28.63
2017-11-17T22:04:32.846Z,30.40
2017-11-17T22:06:59.218Z,29.07
2017-11-17T22:09:25.625Z,32.90
2017-11-17T22:11:52.079Z,31.07
2017-11-17T22:14:18.614Z,29.60
2017-11-17T22:16:45.027Z,24.03
2017-11-17T22:19:11.575Z,23.20
2017-11-17T22:21:38.046Z,25.70
2017-11-17T22:24:04.509Z,23.87
2017-11-17T22:26:30.904Z,25.30
2017-11-17T22:28:57.314Z,26.53
2017-11-17T22:31:23.738Z,26.73
2017-11-17T22:33:50.146Z,19.83
2017-11-17T22:36:16.541Z,22.47
2017-11-17T22:38:43.076Z,23.27
2017-11-17T22:41:09.547Z,22.10
2017-11-17T22:43:35.994Z,22.47
2017-11-17T22:46:02.406Z,24.73
2017-11-17T22:48:28.847Z,25.73
2017-11-17T22:50:55.231Z,26.47
2017-11-17T22:53:21.727Z,26.50
2017-11-17T22:55:48.133Z,21.63
2017-11-17T22:58:14.515Z,20.10
2017-11-17T23:00:41.069Z,25.23
2017-11-17T23:03:07.383Z,22.20
2017-11-17T23:05:33.850Z,21.43
2017-11-17T23:08:00.406Z,22.57
2017-11-17T23:10:26.753Z,24.13
2017-11-17T23:12:53.107Z,18.30
2017-11-17T23:15:19.622Z,19.20
2017-11-17T23:17:45.998Z,23.07
2017-11-17T23:20:12.439Z,18.90
2017-11-17T23:22:38.835Z,20.07
2017-11-17T23:25:05.185Z,20.77
2017-11-17T23:27:31.551Z,21.03
2017-11-17T23:29:57.966Z,19.83
2017-11-17T23:32:24.325Z,17.67
2017-11-17T23:34:50.774Z,19.93
2017-11-17T23:37:17.202Z,19.23
2017-11-17T23:39:43.595Z,20.00
2017-11-17T23:42:09.977Z,20.27
2017-11-17T23:44:36.450Z,25.27
2017-11-17T23:47:02.833Z,21.07
2017-11-17T23:49:29.210Z,16.00
2017-11-17T23:51:55.659Z,18.03
2017-11-17T23:54:22.110Z,17.83
2017-11-17T23:56:48.478Z,18.23
2017-11-17T23:59:14.909Z,18.80
